Time;durP1;ratioP1;P1;durP2;ratioP2;P2;SDS_P1;SDS_P2;PMS_P1;PMS_P2;Temp;Humidity;BMP_temperature;BMP_pressure;BME280_temperature;BME280_humidity;BME280_pressure;Samples;Min_cycle;Max_cycle;Signal;HPM_P1;HPM_P2
2021/06/07 00:02:18;;;;;;;;;;;;;;;15.05;96.98;102207.47;5037837;28;19916;-78
2021/06/07 00:04:44;;;;;;;;;;;;;;;15.09;97.07;102208.88;5031887;28;20048;-76
2021/06/07 00:07:10;;;;;;;;;;;;;;;15.05;97.18;102207.47;5030625;28;19917;-78
2021/06/07 00:09:36;;;;;;;;;;;;;;;15.00;97.30;102207.91;5027392;28;20007;-78
2021/06/07 00:12:04;;;;;;;;;;;;;;;15.02;97.50;102207.75;5044326;28;19921;-77
2021/06/07 00:14:31;;;;;;;;;;;;;;;15.03;97.39;102207.63;5027188;28;19943;-77
2021/06/07 00:16:56;;;;;;;;;;;;;;;15.02;97.30;102211.22;5042120;28;19913;-77
2021/06/07 00:19:26;;;;;;;;;;;;;;;15.00;97.35;102210.53;5033329;28;20200;-77
2021/06/07 00:21:51;;;;;;;;;;;;;;;15.08;96.77;102212.47;5050806;28;19916;-76
2021/06/07 00:24:17;;;;;;;;;;;;;;;15.08;96.86;102212.47;5031152;28;19916;-74
2021/06/07 00:26:43;;;;;;;;;;;;;;;15.06;97.09;102215.25;5032029;28;19917;-75
2021/06/07 00:29:09;;;;;;;;;;;;;;;15.02;96.99;102216.50;5030454;28;19920;-76
2021/06/07 00:31:36;;;;;;;;;;;;;;;14.98;97.05;102213.31;5032588;28;20537;-78
2021/06/07 00:34:02;;;;;;;;;;;;;;;15.03;97.64;102218.19;5048003;28;20003;-77
2021/06/07 00:36:27;;;;;;;;;;;;;;;15.04;97.20;102211.94;5049142;28;20007;-76
2021/06/07 00:38:53;;;;;;;;;;;;;;;15.06;97.29;102209.97;5034151;28;19916;-78
2021/06/07 00:41:19;;;;;;;;;;;;;;;15.05;97.03;102210.97;5046525;28;19924;-76
2021/06/07 00:43:45;;;;;;;;;;;;;;;15.02;97.79;102210.41;5031214;28;20561;-77
2021/06/07 00:46:11;;;;;;;;;;;;;;;14.96;97.53;102217.09;5039924;28;19923;-76
2021/06/07 00:48:36;;;;;;;;;;;;;;;14.94;97.77;102205.81;5024285;28;19917;-75
2021/06/07 00:51:04;;;;;;;;;;;;;;;14.90;97.75;102207.91;5036984;28;19921;-75
2021/06/07 00:53:30;;;;;;;;;;;;;;;14.88;97.96;102209.00;5054239;28;19963;-75
2021/06/07 00:55:57;;;;;;;;;;;;;;;14.90;98.32;102218.47;5048123;28;19920;-76
2021/06/07 00:58:25;;;;;;;;;;;;;;;14.91;98.27;102211.38;5049405;28;19916;-77
2021/06/07 01:00:51;;;;;;;;;;;;;;;14.91;98.34;102214.84;5050675;28;19916;-77
2021/06/07 01:03:18;;;;;;;;;;;;;;;14.91;98.20;102221.94;5056444;28;19917;-74
2021/06/07 01:05:44;;;;;;;;;;;;;;;14.90;98.35;102213.19;5040721;28;20599;-77
2021/06/07 01:08:10;;;;;;;;;;;;;;;15.02;98.24;102213.88;5040416;28;19912;-76
2021/06/07 01:10:35;;;;;;;;;;;;;;;14.97;97.78;102213.44;5051372;28;19942;-76
2021/06/07 01:13:01;;;;;;;;;;;;;;;14.95;98.15;102210.94;5047076;28;19920;-77
2021/06/07 01:15:27;;;;;;;;;;;;;;;14.90;98.28;102213.19;5050569;28;19967;-76
2021/06/07 01:17:52;;;;;;;;;;;;;;;14.89;98.61;102215.97;5030961;28;20418;-76
2021/06/07 01:20:19;;;;;;;;;;;;;;;14.88;98.56;102214.28;5036716;28;20423;-76
2021/06/07 01:22:45;;;;;;;;;;;;;;;14.87;99.01;102208.19;5026445;28;20059;-76
2021/06/07 01:25:13;;;;;;;;;;;;;;;14.86;99.37;102219.72;5026563;28;19928;-77
2021/06/07 01:27:57;;;;;;;;;;;;;;;14.91;99.12;102211.38;5045437;28;19923;-78
2021/06/07 01:30:42;;;;;;;;;;;;;;;14.91;99.17;102212.19;5048385;28;19936;-76
2021/06/07 01:33:09;;;;;;;;;;;;;;;14.91;98.83;102209.56;5044499;28;19924;-77
2021/06/07 01:35:56;;;;;;;;;;;;;;;14.89;98.96;102211.50;5027915;28;19919;-77
2021/06/07 01:38:40;;;;;;;;;;;;;;;14.88;99.42;102214.28;5052656;28;19966;-76
2021/06/07 01:41:24;;;;;;;;;;;;;;;14.86;99.53;102216.22;5045110;28;19919;-78
2021/06/07 01:43:49;;;;;;;;;;;;;;;14.87;99.33;102212.63;5014491;28;20307;-77
2021/06/07 01:46:33;;;;;;;;;;;;;;;14.86;99.07;102211.81;5038867;28;20012;-77
2021/06/07 01:49:17;;;;;;;;;;;;;;;14.81;98.76;102215.84;5040724;28;19963;-76
2021/06/07 01:51:43;;;;;;;;;;;;;;;14.78;99.16;102217.75;5039226;28;19929;-77
2021/06/07 01:54:08;;;;;;;;;;;;;;;14.76;98.73;102210.94;5043583;28;20422;-76
2021/06/07 01:56:35;;;;;;;;;;;;;;;14.76;98.66;102211.78;5048958;28;19923;-77
2021/06/07 01:59:01;;;;;;;;;;;;;;;14.75;98.52;102214.59;5066138;28;19912;-79
2021/06/07 02:01:27;;;;;;;;;;;;;;;14.73;98.74;102212.06;5056857;28;19916;-79
2021/06/07 02:04:10;;;;;;;;;;;;;;;14.69;98.83;102207.19;5059024;28;19927;-78
2021/06/07 02:06:36;;;;;;;;;;;;;;;14.72;98.99;102212.19;5032037;28;19920;-77
2021/06/07 02:09:02;;;;;;;;;;;;;;;14.67;98.99;102206.50;5037809;28;20412;-78
2021/06/07 02:11:29;;;;;;;;;;;;;;;14.67;99.16;102207.31;5045913;28;19925;-77
2021/06/07 02:13:57;;;;;;;;;;;;;;;14.65;98.86;102206.63;5047337;28;20395;-76
2021/06/07 02:16:24;;;;;;;;;;;;;;;14.67;98.97;102199.41;5030294;28;20003;-78
2021/06/07 02:18:50;;;;;;;;;;;;;;;14.67;98.94;102209.13;5042576;28;20074;-77
2021/06/07 02:21:17;;;;;;;;;;;;;;;14.63;98.97;102202.47;5044196;28;20434;-78
2021/06/07 02:23:42;;;;;;;;;;;;;;;14.62;99.47;102203.41;5057981;28;19912;-78
2021/06/07 02:26:08;;;;;;;;;;;;;;;14.58;99.44;102205.53;5011816;28;20618;-79
2021/06/07 02:28:34;;;;;;;;;;;;;;;14.54;99.65;102210.22;5061565;28;19942;-78
2021/06/07 02:31:00;;;;;;;;;;;;;;;14.57;99.64;102211.75;5046329;28;19920;-77
2021/06/07 02:33:26;;;;;;;;;;;;;;;14.56;99.67;102210.06;5045253;28;19917;-77
2021/06/07 02:35:51;;;;;;;;;;;;;;;14.56;99.67;102207.41;5028744;28;19917;-77
2021/06/07 02:38:17;;;;;;;;;;;;;;;14.56;99.73;102208.28;5047474;28;19920;-76
2021/06/07 02:40:44;;;;;;;;;;;;;;;14.59;99.30;102207.19;5051038;28;19925;-78
2021/06/07 02:43:09;;;;;;;;;;;;;;;14.58;99.74;102210.81;5029546;28;19921;-76
2021/06/07 02:45:35;;;;;;;;;;;;;;;14.57;99.72;102212.59;5028130;28;19917;-77
2021/06/07 02:48:00;;;;;;;;;;;;;;;14.58;99.77;102218.72;5028505;28;19913;-77
2021/06/07 02:50:28;;;;;;;;;;;;;;;14.57;100.00;102211.75;5026556;28;19920;-76
2021/06/07 02:52:54;;;;;;;;;;;;;;;14.52;100.00;102204.25;5041326;28;19916;-77
2021/06/07 02:55:26;;;;;;;;;;;;;;;14.55;100.00;102205.75;5063671;28;19995;-77
2021/06/07 02:57:52;;;;;;;;;;;;;;;14.56;100.00;102212.69;5055088;28;20365;-76
2021/06/07 03:00:38;;;;;;;;;;;;;;;14.59;99.77;102212.47;5050566;28;20007;-75
2021/06/07 03:03:05;;;;;;;;;;;;;;;14.60;99.87;102219.44;5041019;28;20282;-77
2021/06/07 03:05:31;;;;;;;;;;;;;;;14.58;99.71;102214.28;5053977;28;19912;-78
2021/06/07 03:07:57;;;;;;;;;;;;;;;14.59;99.85;102215.09;5047477;28;19920;-78
2021/06/07 03:10:22;;;;;;;;;;;;;;;14.63;99.64;102213.03;5058665;28;19916;-77
2021/06/07 03:12:48;;;;;;;;;;;;;;;14.63;99.24;102210.38;5069625;28;19913;-78
2021/06/07 03:15:14;;;;;;;;;;;;;;;14.58;99.23;102216.09;5049675;28;20653;-77
2021/06/07 03:17:40;;;;;;;;;;;;;;;14.60;99.62;102214.16;5060719;28;19912;-77
2021/06/07 03:20:07;;;;;;;;;;;;;;;14.59;99.83;102205.38;5066964;28;20019;-77
2021/06/07 03:22:32;;;;;;;;;;;;;;;14.58;100.00;102211.63;5055002;28;20474;-77
2021/06/07 03:24:58;;;;;;;;;;;;;;;14.58;100.00;102206.34;5060092;28;19931;-77
2021/06/07 03:27:23;;;;;;;;;;;;;;;14.56;100.00;102212.69;5055873;28;20413;-76
2021/06/07 03:29:49;;;;;;;;;;;;;;;14.55;100.00;102211.03;5045935;28;20318;-78
2021/06/07 03:32:15;;;;;;;;;;;;;;;14.56;99.98;102217.97;5047743;28;20040;-78
2021/06/07 03:34:40;;;;;;;;;;;;;;;14.54;100.00;102204.06;5043759;28;19913;-76
2021/06/07 03:37:06;;;;;;;;;;;;;;;14.53;100.00;102208.53;5049501;28;19923;-77
2021/06/07 03:39:32;;;;;;;;;;;;;;;14.55;100.00;102206.59;5026067;28;20526;-77
2021/06/07 03:41:57;;;;;;;;;;;;;;;14.57;100.00;102212.59;5044002;28;19916;-77
2021/06/07 03:44:23;;;;;;;;;;;;;;;14.57;100.00;102209.94;5064498;28;19917;-77
2021/06/07 03:46:48;;;;;;;;;;;;;;;14.56;100.00;102213.53;5030634;28;19913;-77
2021/06/07 03:49:14;;;;;;;;;;;;;;;14.55;100.00;102211.03;5034750;28;20411;-77
2021/06/07 03:51:39;;;;;;;;;;;;;;;14.53;100.00;102210.34;5026478;28;19916;-77
2021/06/07 03:54:05;;;;;;;;;;;;;;;14.50;100.00;102211.44;5046756;28;20003;-78
2021/06/07 03:56:30;;;;;;;;;;;;;;;14.51;100.00;102207.00;5042482;28;19974;-77
2021/06/07 03:58:55;;;;;;;;;;;;;;;14.50;100.00;102213.25;5033404;28;20713;-75
2021/06/07 04:01:21;;;;;;;;;;;;;;;14.51;100.00;102207.84;5037016;28;19955;-75
2021/06/07 04:03:46;;;;;;;;;;;;;;;14.55;100.00;102203.13;5054036;28;19958;-77
2021/06/07 04:06:12;;;;;;;;;;;;;;;14.54;100.00;102210.22;5048804;28;19987;-76
2021/06/07 04:08:38;;;;;;;;;;;;;;;14.57;100.00;102209.94;5063090;28;19916;-77
2021/06/07 04:11:03;;;;;;;;;;;;;;;14.56;100.00;102207.41;5052235;28;19924;-77
2021/06/07 04:13:29;;;;;;;;;;;;;;;14.60;100.00;102219.44;5029725;28;19916;-76
2021/06/07 04:15:54;;;;;;;;;;;;;;;14.61;100.00;102215.78;5030122;28;19917;-77
2021/06/07 04:18:19;;;;;;;;;;;;;;;14.59;99.97;102217.75;5029619;28;19916;-76
2021/06/07 04:20:45;;;;;;;;;;;;;;;14.59;100.00;102220.38;5032873;28;20012;-77
2021/06/07 04:23:10;;;;;;;;;;;;;;;14.65;99.51;102217.19;5054402;28;19920;-77
2021/06/07 04:25:36;;;;;;;;;;;;;;;14.63;99.63;102226.22;5057924;28;19916;-77
2021/06/07 04:28:02;;;;;;;;;;;;;;;14.61;99.87;102229.00;5034508;28;19917;-76
2021/06/07 04:30:29;;;;;;;;;;;;;;;14.63;99.46;102213.84;5050690;28;19916;-76
2021/06/07 04:32:55;;;;;;;;;;;;;;;14.66;99.51;102223.31;5060228;28;19916;-77
2021/06/07 04:35:21;;;;;;;;;;;;;;;14.68;99.54;102227.47;5060159;28;19985;-77
2021/06/07 04:37:50;;;;;;;;;;;;;;;14.73;99.40;102227.06;5044804;28;19912;-74
2021/06/07 04:40:17;;;;;;;;;;;;;;;14.76;99.00;102222.34;5029622;28;19956;-77
2021/06/07 04:42:42;;;;;;;;;;;;;;;14.79;99.13;102224.72;5013019;28;19912;-77
2021/06/07 04:45:09;;;;;;;;;;;;;;;14.81;98.36;102221.94;5028970;28;19917;-77
2021/06/07 04:47:35;;;;;;;;;;;;;;;14.85;98.35;102230.44;5028357;28;19967;-78
2021/06/07 04:50:01;;;;;;;;;;;;;;;14.88;97.96;102228.34;5048159;28;20340;-79
2021/06/07 04:52:26;;;;;;;;;;;;;;;14.85;97.60;102228.63;5058567;28;19916;-77
2021/06/07 04:54:52;;;;;;;;;;;;;;;14.85;97.93;102223.31;5048452;28;20381;-77
2021/06/07 04:57:17;;;;;;;;;;;;;;;14.83;97.60;102230.56;5047213;28;20362;-76
2021/06/07 04:59:43;;;;;;;;;;;;;;;14.82;97.81;102228.06;5010955;28;20280;-76
2021/06/07 05:02:08;;;;;;;;;;;;;;;14.81;97.59;102224.59;5061256;28;20306;-78
2021/06/07 05:04:33;;;;;;;;;;;;;;;14.83;98.14;102227.09;5037545;28;19991;-77
2021/06/07 05:06:59;;;;;;;;;;;;;;;14.82;97.92;102230.69;5046915;28;19940;-77
2021/06/07 05:09:24;;;;;;;;;;;;;;;14.79;98.18;102224.72;5030106;28;20007;-76
2021/06/07 05:11:50;;;;;;;;;;;;;;;14.83;98.00;102232.38;5047234;28;19924;-76
2021/06/07 05:14:15;;;;;;;;;;;;;;;14.87;97.80;102228.47;5012873;28;19917;-76
2021/06/07 05:16:40;;;;;;;;;;;;;;;14.91;97.67;102230.69;5039133;28;20297;-76
2021/06/07 05:19:06;;;;;;;;;;;;;;;14.94;96.93;102227.78;5056478;28;19962;-77
2021/06/07 05:21:31;;;;;;;;;;;;;;;14.90;96.82;102226.41;5048391;28;19923;-77
2021/06/07 05:23:57;;;;;;;;;;;;;;;14.96;96.80;102230.28;5061266;28;19930;-77
2021/06/07 05:26:22;;;;;;;;;;;;;;;14.99;97.00;102228.22;5067635;28;19919;-77
2021/06/07 05:28:48;;;;;;;;;;;;;;;15.01;96.57;102228.03;5049434;28;19950;-77
2021/06/07 05:31:13;;;;;;;;;;;;;;;15.05;96.34;102226.81;5048072;28;19920;-77
2021/06/07 05:33:38;;;;;;;;;;;;;;;15.09;96.35;102230.84;5047517;28;20259;-76
2021/06/07 05:36:04;;;;;;;;;;;;;;;15.10;95.91;102231.66;5027606;28;19909;-77
2021/06/07 05:38:29;;;;;;;;;;;;;;;15.09;95.81;102235.31;5055414;28;19920;-77
2021/06/07 05:40:56;;;;;;;;;;;;;;;15.08;95.81;102237.09;5030583;28;19913;-77
2021/06/07 05:43:23;;;;;;;;;;;;;;;15.10;96.05;102236.97;5033384;28;19920;-77
2021/06/07 05:45:49;;;;;;;;;;;;;;;15.07;96.40;102234.59;5042040;28;19915;-76
2021/06/07 05:48:15;;;;;;;;;;;;;;;15.01;96.49;102246.53;5051632;28;19974;-76
2021/06/07 05:50:41;;;;;;;;;;;;;;;14.99;96.61;102246.72;5035259;28;19924;-77
2021/06/07 05:53:07;;;;;;;;;;;;;;;15.02;96.67;102248.22;5040323;28;19981;-77
2021/06/07 05:55:37;;;;;;;;;;;;;;;15.07;96.72;102248.66;5050783;28;20034;-77
2021/06/07 05:58:04;;;;;;;;;;;;;;;15.07;96.88;102248.66;5039279;28;20563;-76
2021/06/07 06:00:34;;;;;;;;;;;;;;;15.11;96.89;102254.50;5057658;28;20731;-77
2021/06/07 06:03:00;;;;;;;;;;;;;;;15.18;96.55;102247.66;5056370;28;19916;-76
2021/06/07 06:05:25;;;;;;;;;;;;;;;15.24;96.30;102247.13;5048261;28;20362;-77
2021/06/07 06:07:51;;;;;;;;;;;;;;;15.30;95.70;102249.19;5047876;28;19917;-77
2021/06/07 06:10:17;;;;;;;;;;;;;;;15.31;95.32;102250.00;5046438;28;19917;-77
2021/06/07 06:12:46;;;;;;;;;;;;;;;15.30;95.13;102245.72;5035583;28;19913;-76
2021/06/07 06:15:11;;;;;;;;;;;;;;;15.31;95.53;102247.38;5047618;28;20003;-77
2021/06/07 06:17:37;;;;;;;;;;;;;;;15.36;95.39;102248.63;5031547;28;20012;-77
2021/06/07 06:20:04;;;;;;;;;;;;;;;15.30;95.41;102256.28;5047811;28;19912;-78
2021/06/07 06:22:30;;;;;;;;;;;;;;;15.30;96.17;102248.34;5053736;28;19917;-77
2021/06/07 06:24:56;;;;;;;;;;;;;;;15.33;96.75;102253.34;5017743;28;19923;-76
2021/06/07 06:27:21;;;;;;;;;;;;;;;15.33;95.67;102253.34;5041778;28;19920;-77
2021/06/07 06:29:46;;;;;;;;;;;;;;;15.38;95.60;102251.13;5054142;28;20405;-77
2021/06/07 06:32:12;;;;;;;;;;;;;;;15.38;95.36;102251.94;5048159;28;19913;-79
2021/06/07 06:34:39;;;;;;;;;;;;;;;15.41;95.63;102253.50;5043882;28;19917;-77
2021/06/07 06:37:04;;;;;;;;;;;;;;;15.48;95.06;102257.25;5040574;28;19913;-78
2021/06/07 06:39:30;;;;;;;;;;;;;;;15.53;94.39;102249.69;5025567;28;20436;-76
2021/06/07 06:41:56;;;;;;;;;;;;;;;15.54;94.24;102251.38;5029247;28;19917;-76
2021/06/07 06:44:22;;;;;;;;;;;;;;;15.54;93.99;102254.03;5011320;28;19923;-77
2021/06/07 06:46:48;;;;;;;;;;;;;;;15.57;94.47;102258.19;5026733;28;19969;-76
2021/06/07 06:49:13;;;;;;;;;;;;;;;15.53;94.43;102262.91;5046325;28;20015;-76
2021/06/07 06:51:39;;;;;;;;;;;;;;;15.54;95.63;102263.78;5048828;28;19917;-79
2021/06/07 06:54:04;;;;;;;;;;;;;;;15.57;95.70;102266.94;5052956;28;19916;-77
2021/06/07 06:56:30;;;;;;;;;;;;;;;15.63;94.12;102270.81;5029466;28;20016;-77
2021/06/07 06:58:55;;;;;;;;;;;;;;;15.71;93.74;102273.63;5048441;28;19913;-77
2021/06/07 07:01:20;;;;;;;;;;;;;;;15.81;94.23;102273.63;5040029;28;19912;-77
2021/06/07 07:03:47;;;;;;;;;;;;;;;15.91;94.57;102277.06;5033916;28;20446;-77
2021/06/07 07:06:12;;;;;;;;;;;;;;;16.00;91.51;102271.88;5054456;28;20351;-77
2021/06/07 07:08:38;;;;;;;;;;;;;;;16.07;91.00;102280.94;5019626;28;19992;-77
2021/06/07 07:11:03;;;;;;;;;;;;;;;16.02;90.98;102276.03;5059992;28;19966;-76
2021/06/07 07:13:29;;;;;;;;;;;;;;;16.04;91.13;102283.84;5064120;28;20469;-76
2021/06/07 07:15:55;;;;;;;;;;;;;;;16.02;90.74;102291.94;5026399;28;19952;-76
2021/06/07 07:18:20;;;;;;;;;;;;;;;16.05;90.78;102293.44;5068135;28;19916;-77
2021/06/07 07:20:45;;;;;;;;;;;;;;;16.07;90.33;102294.16;5055649;28;20379;-76
2021/06/07 07:23:11;;;;;;;;;;;;;;;16.08;91.32;102293.16;5050744;28;19927;-77
2021/06/07 07:25:38;;;;;;;;;;;;;;;16.26;89.32;102290.59;5037088;28;19964;-78
2021/06/07 07:28:03;;;;;;;;;;;;;;;16.32;89.10;102295.31;5051440;28;19962;-77
2021/06/07 07:30:31;;;;;;;;;;;;;;;16.36;89.65;102294.03;5043132;28;19920;-76
2021/06/07 07:32:56;;;;;;;;;;;;;;;16.49;88.68;102296.34;5060585;28;19916;-76
2021/06/07 07:35:22;;;;;;;;;;;;;;;16.61;88.11;102294.31;5035437;28;19923;-77
2021/06/07 07:37:48;;;;;;;;;;;;;;;16.74;88.42;102298.28;5031478;28;19971;-77
2021/06/07 07:40:14;;;;;;;;;;;;;;;16.97;87.30;102297.88;5013745;28;20403;-75
2021/06/07 07:42:40;;;;;;;;;;;;;;;17.25;85.65;102308.38;5030624;28;19916;-77
2021/06/07 07:45:07;;;;;;;;;;;;;;;17.41;84.51;102297.09;5030177;28;20280;-76
2021/06/07 07:47:33;;;;;;;;;;;;;;;17.58;84.06;102290.91;5052673;28;19927;-76
2021/06/07 07:49:58;;;;;;;;;;;;;;;17.57;83.66;102289.25;5055988;28;19913;-77
2021/06/07 07:52:25;;;;;;;;;;;;;;;17.75;83.44;102299.00;5064080;28;19915;-77
2021/06/07 07:54:51;;;;;;;;;;;;;;;17.86;82.05;102296.94;5048265;28;19916;-77
2021/06/07 07:57:17;;;;;;;;;;;;;;;17.88;81.93;102296.78;5057629;28;19913;-78
2021/06/07 07:59:42;;;;;;;;;;;;;;;18.14;83.35;102298.56;5056350;28;20386;-78
2021/06/07 08:02:08;;;;;;;;;;;;;;;18.24;80.83;102292.16;5053780;28;20028;-77
2021/06/07 08:04:34;;;;;;;;;;;;;;;18.39;80.42;102300.34;5049696;28;19979;-78
2021/06/07 08:06:59;;;;;;;;;;;;;;;18.37;79.76;102293.53;5059853;28;19930;-77
2021/06/07 08:09:26;;;;;;;;;;;;;;;18.58;78.01;102295.78;5053648;28;19922;-75
2021/06/07 08:11:51;;;;;;;;;;;;;;;18.63;79.91;102296.94;5069389;28;20398;-77
2021/06/07 08:14:17;;;;;;;;;;;;;;;18.77;77.22;102298.13;5050318;28;19943;-77
2021/06/07 08:16:44;;;;;;;;;;;;;;;18.58;77.50;102288.63;5047529;28;20351;-77
2021/06/07 08:19:10;;;;;;;;;;;;;;;18.66;77.98;102296.59;5050233;28;19923;-78
2021/06/07 08:21:35;;;;;;;;;;;;;;;18.64;77.65;102293.28;5035702;28;20470;-75
2021/06/07 08:24:01;;;;;;;;;;;;;;;18.82;77.21;102293.19;5029415;28;19913;-76
2021/06/07 08:26:26;;;;;;;;;;;;;;;18.95;78.08;102286.56;5045807;28;19916;-75
2021/06/07 08:28:52;;;;;;;;;;;;;;;18.86;76.50;102291.06;5052243;28;21208;-78
2021/06/07 08:31:17;;;;;;;;;;;;;;;18.72;77.96;102291.63;5030998;28;20382;-77
2021/06/07 08:33:42;;;;;;;;;;;;;;;18.73;77.29;102294.13;5051958;28;19912;-77
2021/06/07 08:36:08;;;;;;;;;;;;;;;18.59;78.75;102295.63;5049320;28;19931;-77
2021/06/07 08:38:33;;;;;;;;;;;;;;;18.65;78.42;102291.47;5061939;28;19912;-77
2021/06/07 08:40:59;;;;;;;;;;;;;;;18.66;77.91;102291.28;5038455;28;19924;-80
2021/06/07 08:43:25;;;;;;;;;;;;;;;18.47;78.99;102286.25;5054509;28;20278;-77
2021/06/07 08:45:50;;;;;;;;;;;;;;;18.54;79.48;102292.59;5061656;28;19923;-76
2021/06/07 08:48:16;;;;;;;;;;;;;;;18.64;82.26;102292.47;5071512;28;19916;-76
2021/06/07 08:50:42;;;;;;;;;;;;;;;18.83;79.48;102294.03;5065528;28;19924;-76
2021/06/07 08:53:07;;;;;;;;;;;;;;;18.80;78.07;102289.88;5058647;28;20015;-76
2021/06/07 08:55:34;;;;;;;;;;;;;;;18.95;80.10;102284.75;5047770;28;19916;-76
2021/06/07 08:58:01;;;;;;;;;;;;;;;19.00;80.88;102293.03;5042114;28;19921;-76
2021/06/07 09:00:31;;;;;;;;;;;;;;;18.94;79.15;102292.88;5042666;28;20014;-78
2021/06/07 09:03:00;;;;;;;;;;;;;;;18.88;80.91;102289.06;5060826;28;20540;-76
2021/06/07 09:05:27;;;;;;;;;;;;;;;18.84;79.19;102296.53;5030296;28;19913;-78
2021/06/07 09:08:03;;;;;;;;;;;;;;;18.80;78.67;102291.69;5032161;28;20381;-75
2021/06/07 09:10:30;;;;;;;;;;;;;;;18.78;79.01;102291.84;5021255;28;19925;-77
2021/06/07 09:12:57;;;;;;;;;;;;;;;18.76;79.79;102287.66;5035094;28;19913;-79
2021/06/07 09:15:23;;;;;;;;;;;;;;;18.79;78.79;102292.66;5037956;28;19920;-75
2021/06/07 09:17:49;;;;;;;;;;;;;;;18.86;79.31;102285.72;5035414;28;19979;-77
2021/06/07 09:20:16;;;;;;;;;;;;;;;18.84;78.28;102288.56;5015753;28;19916;-76
2021/06/07 09:23:17;;;;;;;;;;;;;;;18.78;78.48;102289.19;5033300;28;19916;-77
2021/06/07 09:25:46;;;;;;;;;;;;;;;18.94;78.98;102290.22;5048559;28;19916;-77
2021/06/07 09:28:19;;;;;;;;;;;;;;;18.90;77.99;102283.56;5030707;28;19956;-77
2021/06/07 09:30:53;;;;;;;;;;;;;;;18.93;77.48;102281.44;5024708;28;19936;-76
2021/06/07 09:33:37;;;;;;;;;;;;;;;18.96;77.42;102285.56;5052014;28;20015;-77
2021/06/07 09:36:07;;;;;;;;;;;;;;;19.01;77.95;102288.56;5056228;28;20003;-76
2021/06/07 09:38:33;;;;;;;;;;;;;;;19.02;77.25;102293.75;5037601;28;20491;-77
2021/06/07 09:40:59;;;;;;;;;;;;;;;19.14;77.02;102288.09;5029614;28;19923;-76
2021/06/07 09:43:25;;;;;;;;;;;;;;;19.25;76.84;102285.94;5029566;28;19913;-76
2021/06/07 09:45:55;;;;;;;;;;;;;;;19.30;76.23;102287.25;5038271;28;19948;-78
2021/06/07 09:48:26;;;;;;;;;;;;;;;19.34;75.46;102289.41;5049015;28;19916;-76
2021/06/07 09:50:56;;;;;;;;;;;;;;;19.49;75.13;102283.41;5047543;28;19963;-76
2021/06/07 09:53:40;;;;;;;;;;;;;;;19.64;75.41;102279.88;5058607;28;19916;-77
2021/06/07 09:56:06;;;;;;;;;;;;;;;19.73;74.67;102285.25;5061479;28;19916;-76
2021/06/07 09:58:32;;;;;;;;;;;;;;;19.81;75.27;102280.72;5052667;28;20144;-77
2021/06/07 10:00:58;;;;;;;;;;;;;;;19.92;73.04;102289.34;5058160;28;19913;-75
2021/06/07 10:03:27;;;;;;;;;;;;;;;19.81;74.92;102279.88;5025041;28;20460;-78
2021/06/07 10:05:54;;;;;;;;;;;;;;;19.84;74.62;102288.38;5050531;28;20314;-76
2021/06/07 10:08:22;;;;;;;;;;;;;;;20.03;78.19;102291.66;5065235;28;19913;-76
2021/06/07 10:10:47;;;;;;;;;;;;;;;20.34;74.69;102291.72;5034798;28;19926;-76
2021/06/07 10:13:13;;;;;;;;;;;;;;;20.34;73.24;102297.03;5069251;28;19912;-78
2021/06/07 10:15:40;;;;;;;;;;;;;;;21.02;69.82;102296.47;5046421;28;19916;-76
2021/06/07 10:18:08;;;;;;;;;;;;;;;21.07;69.38;102294.94;5059093;28;19920;-76
2021/06/07 10:20:47;;;;;;;;;;;;;;;20.88;70.76;102293.56;5057050;28;19964;-77
2021/06/07 10:23:13;;;;;;;;;;;;;;;20.77;70.61;102300.13;5059100;28;19970;-76
2021/06/07 10:25:38;;;;;;;;;;;;;;;;;;5047052;28;19927;-76
2021/06/07 10:28:04;;;;;;;;;;;;;;;21.68;68.08;102292.28;5051005;28;19916;-76
2021/06/07 10:30:29;;;;;;;;;;;;;;;21.64;66.61;102293.63;5045191;28;20029;-78
2021/06/07 10:32:55;;;;;;;;;;;;;;;21.53;67.79;102292.25;5060946;28;19923;-77
2021/06/07 10:35:36;;;;;;;;;;;;;;;21.74;68.32;102286.19;5046432;28;19917;-77
2021/06/07 10:38:08;;;;;;;;;;;;;;;22.06;66.02;102286.84;5031060;28;19921;-76
2021/06/07 10:40:35;;;;;;;;;;;;;;;21.99;65.06;102291.25;5029258;28;20389;-76
2021/06/07 10:43:03;;;;;;;;;;;;;;;22.09;65.31;102290.97;5055002;28;20526;-77
2021/06/07 10:45:30;;;;;;;;;;;;;;;22.11;63.43;102284.44;5041738;28;19924;-77
2021/06/07 10:47:56;;;;;;;;;;;;;;;22.00;66.47;102292.94;5072160;28;19919;-76
2021/06/07 10:50:22;;;;;;;;;;;;;;;22.08;63.16;102297.34;5052159;28;19917;-77
2021/06/07 10:52:54;;;;;;;;;;;;;;;22.00;64.08;102295.59;5013168;28;19964;-76
2021/06/07 10:55:31;;;;;;;;;;;;;;;21.76;65.20;102300.19;5049156;28;19921;-77
2021/06/07 10:58:04;;;;;;;;;;;;;;;21.98;65.05;102297.59;5031694;28;20306;-77
2021/06/07 11:00:30;;;;;;;;;;;;;;;21.94;65.16;102293.66;5044792;28;19970;-77
2021/06/07 11:03:14;;;;;;;;;;;;;;;21.80;65.84;102289.97;5064330;28;19912;-78
2021/06/07 11:05:40;;;;;;;;;;;;;;;21.89;68.18;102294.22;5043616;28;19916;-77
2021/06/07 11:08:07;;;;;;;;;;;;;;;21.94;65.49;102291.84;5044902;28;20294;-77
2021/06/07 11:10:34;;;;;;;;;;;;;;;21.91;66.04;102294.03;5062719;28;20410;-77
2021/06/07 11:13:01;;;;;;;;;;;;;;;22.04;64.60;102298.72;5055869;28;19996;-78
2021/06/07 11:15:28;;;;;;;;;;;;;;;22.24;63.92;102286.44;5042308;28;19916;-78
2021/06/07 11:18:13;;;;;;;;;;;;;;;22.29;64.61;102291.28;5044102;28;19916;-78
2021/06/07 11:20:39;;;;;;;;;;;;;;;22.86;65.76;102293.13;5043533;28;19916;-76
2021/06/07 11:23:05;;;;;;;;;;;;;;;23.22;61.60;102288.75;5067747;28;19930;-77
2021/06/07 11:25:40;;;;;;;;;;;;;;;23.51;61.69;102285.91;5039355;28;20006;-77
2021/06/07 11:28:25;;;;;;;;;;;;;;;23.78;59.66;102286.06;5032860;28;19947;-77
2021/06/07 11:30:51;;;;;;;;;;;;;;;23.61;61.40;102295.44;5042545;28;20034;-77
2021/06/07 11:33:16;;;;;;;;;;;;;;;23.62;61.56;102286.34;5061830;28;19916;-76
2021/06/07 11:35:42;;;;;;;;;;;;;;;23.79;60.27;102287.75;5066499;28;19916;-77
2021/06/07 11:38:28;;;;;;;;;;;;;;;23.51;61.07;102283.22;5058420;28;19924;-77
2021/06/07 11:40:53;;;;;;;;;;;;;;;23.19;60.97;102287.31;5054909;28;19917;-77
2021/06/07 11:43:38;;;;;;;;;;;;;;;22.99;61.35;102291.63;5072153;28;19916;-77
2021/06/07 11:46:04;;;;;;;;;;;;;;;23.28;62.13;102287.97;5058626;28;19912;-76
2021/06/07 11:49:03;;;;;;;;;;;;;;;23.45;60.02;102288.50;5061768;28;20065;-75
2021/06/07 11:51:29;;;;;;;;;;;;;;;23.79;61.27;102286.91;5040810;28;20282;-77
2021/06/07 11:53:54;;;;;;;;;;;;;;;23.74;58.36;102287.47;5054410;28;19965;-76
2021/06/07 11:56:21;;;;;;;;;;;;;;;24.04;59.61;102282.72;5063571;28;19920;-75
2021/06/07 11:58:47;;;;;;;;;;;;;;;24.27;58.59;102289.63;5036378;28;20054;-76
2021/06/07 12:01:13;;;;;;;;;;;;;;;24.63;56.68;102283.16;5059361;28;20351;-76
2021/06/07 12:03:42;;;;;;;;;;;;;;;24.36;54.63;102280.38;5040970;28;20031;-78
2021/06/07 12:06:08;;;;;;;;;;;;;;;23.92;59.08;102270.91;5060984;28;19920;-76
2021/06/07 12:08:33;;;;;;;;;;;;;;;23.89;55.68;102276.69;5058932;28;19913;-76
2021/06/07 12:11:00;;;;;;;;;;;;;;;23.85;56.98;102276.25;5043952;28;19920;-76
2021/06/07 12:13:30;;;;;;;;;;;;;;;24.15;57.01;102275.13;5069598;28;19916;-76
2021/06/07 12:15:55;;;;;;;;;;;;;;;24.12;56.60;102275.56;5056598;28;20374;-77
2021/06/07 12:18:31;;;;;;;;;;;;;;;24.11;58.32;102269.38;5049097;28;19917;-76
2021/06/07 12:20:58;;;;;;;;;;;;;;;24.43;53.76;102272.34;5060547;28;19916;-76
2021/06/07 12:23:26;;;;;;;;;;;;;;;24.45;53.91;102263.09;5037519;28;19920;-77
2021/06/07 12:28:36;;;;;;;;;;;;;;;24.13;55.56;102267.31;5038811;28;19912;-77
2021/06/07 12:31:02;;;;;;;;;;;;;;;24.39;54.11;102266.59;5067381;28;19970;-78
2021/06/07 12:33:28;;;;;;;;;;;;;;;24.53;57.09;102263.97;5051159;28;20276;-77
2021/06/07 12:35:54;;;;;;;;;;;;;;;24.79;54.65;102261.31;5043579;28;19956;-76
2021/06/07 12:38:20;;;;;;;;;;;;;;;24.95;52.95;102259.28;5070344;28;19912;-75
2021/06/07 12:40:46;;;;;;;;;;;;;;;24.61;54.62;102261.91;5036970;28;20413;-76